sensor_id;sensor_type;location;lat;lon;timestamp;P1;durP1;ratioP1;P2;durP2;ratioP2
44440;SDS011;30146;52.268;20.944;2023-02-28T00:01:11;45.50;;;20.50;;
44440;SDS011;30146;52.268;20.944;2023-02-28T00:03:40;52.90;;;19.90;;
44440;SDS011;30146;52.268;20.944;2023-02-28T00:06:09;90.90;;;28.00;;
44440;SDS011;30146;52.268;20.944;2023-02-28T00:08:37;111.90;;;30.60;;
44440;SDS011;30146;52.268;20.944;2023-02-28T00:11:06;88.50;;;32.10;;
44440;SDS011;30146;52.268;20.944;2023-02-28T00:13:36;78.50;;;26.10;;
44440;SDS011;30146;52.268;20.944;2023-02-28T00:16:07;44.80;;;20.40;;
44440;SDS011;30146;52.268;20.944;2023-02-28T00:18:36;55.60;;;19.40;;
44440;SDS011;30146;52.268;20.944;2023-02-28T00:21:05;60.90;;;22.20;;
44440;SDS011;30146;52.268;20.944;2023-02-28T00:23:34;46.40;;;20.10;;
44440;SDS011;30146;52.268;20.944;2023-02-28T00:26:02;64.00;;;23.80;;
44440;SDS011;30146;52.268;20.944;2023-02-28T00:28:31;60.70;;;23.50;;
44440;SDS011;30146;52.268;20.944;2023-02-28T00:30:59;66.90;;;22.20;;
44440;SDS011;30146;52.268;20.944;2023-02-28T00:33:28;51.90;;;21.60;;
44440;SDS011;30146;52.268;20.944;2023-02-28T00:36:04;61.80;;;22.60;;
44440;SDS011;30146;52.268;20.944;2023-02-28T00:38:36;42.90;;;19.40;;
44440;SDS011;30146;52.268;20.944;2023-02-28T00:41:04;44.10;;;21.50;;
44440;SDS011;30146;52.268;20.944;2023-02-28T00:43:34;48.70;;;20.20;;
44440;SDS011;30146;52.268;20.944;2023-02-28T00:46:04;51.70;;;21.00;;
44440;SDS011;30146;52.268;20.944;2023-02-28T00:48:33;42.60;;;21.20;;
44440;SDS011;30146;52.268;20.944;2023-02-28T00:51:01;44.40;;;19.40;;
44440;SDS011;30146;52.268;20.944;2023-02-28T00:53:31;47.50;;;19.70;;
44440;SDS011;30146;52.268;20.944;2023-02-28T00:55:59;43.50;;;19.50;;
44440;SDS011;30146;52.268;20.944;2023-02-28T00:58:27;56.20;;;21.00;;
44440;SDS011;30146;52.268;20.944;2023-02-28T01:00:55;46.00;;;21.00;;
44440;SDS011;30146;52.268;20.944;2023-02-28T01:03:23;45.70;;;20.90;;
44440;SDS011;30146;52.268;20.944;2023-02-28T01:05:52;46.40;;;20.00;;
44440;SDS011;30146;52.268;20.944;2023-02-28T01:08:20;46.40;;;20.10;;
44440;SDS011;30146;52.268;20.944;2023-02-28T01:10:48;40.40;;;16.80;;
44440;SDS011;30146;52.268;20.944;2023-02-28T01:13:16;41.00;;;17.90;;
44440;SDS011;30146;52.268;20.944;2023-02-28T01:15:45;39.40;;;18.00;;
44440;SDS011;30146;52.268;20.944;2023-02-28T01:18:16;39.40;;;17.50;;
44440;SDS011;30146;52.268;20.944;2023-02-28T01:20:44;49.20;;;17.80;;
44440;SDS011;30146;52.268;20.944;2023-02-28T01:23:12;38.00;;;17.00;;
44440;SDS011;30146;52.268;20.944;2023-02-28T01:25:40;39.10;;;17.40;;
44440;SDS011;30146;52.268;20.944;2023-02-28T01:28:09;43.90;;;20.40;;
44440;SDS011;30146;52.268;20.944;2023-02-28T01:30:37;37.60;;;18.70;;
44440;SDS011;30146;52.268;20.944;2023-02-28T01:33:06;40.70;;;18.60;;
44440;SDS011;30146;52.268;20.944;2023-02-28T01:35:34;39.50;;;18.70;;
44440;SDS011;30146;52.268;20.944;2023-02-28T01:38:03;44.80;;;18.90;;
44440;SDS011;30146;52.268;20.944;2023-02-28T01:40:47;41.40;;;17.10;;
44440;SDS011;30146;52.268;20.944;2023-02-28T01:43:20;40.50;;;17.30;;
44440;SDS011;30146;52.268;20.944;2023-02-28T01:45:50;39.70;;;17.90;;
44440;SDS011;30146;52.268;20.944;2023-02-28T01:48:22;44.00;;;18.50;;
44440;SDS011;30146;52.268;20.944;2023-02-28T01:50:53;35.70;;;16.60;;
44440;SDS011;30146;52.268;20.944;2023-02-28T01:53:28;42.50;;;16.90;;
44440;SDS011;30146;52.268;20.944;2023-02-28T01:55:59;43.90;;;19.70;;
44440;SDS011;30146;52.268;20.944;2023-02-28T01:58:30;49.70;;;17.90;;
44440;SDS011;30146;52.268;20.944;2023-02-28T02:00:59;36.50;;;17.40;;
44440;SDS011;30146;52.268;20.944;2023-02-28T02:03:29;40.30;;;18.10;;
44440;SDS011;30146;52.268;20.944;2023-02-28T02:05:58;32.00;;;16.70;;
44440;SDS011;30146;52.268;20.944;2023-02-28T02:08:28;40.50;;;18.80;;
44440;SDS011;30146;52.268;20.944;2023-02-28T02:10:57;41.10;;;18.60;;
44440;SDS011;30146;52.268;20.944;2023-02-28T02:13:30;41.20;;;19.50;;
44440;SDS011;30146;52.268;20.944;2023-02-28T02:16:11;45.10;;;19.60;;
44440;SDS011;30146;52.268;20.944;2023-02-28T02:18:55;46.70;;;19.40;;
44440;SDS011;30146;52.268;20.944;2023-02-28T02:21:35;42.30;;;21.10;;
44440;SDS011;30146;52.268;20.944;2023-02-28T02:27:28;42.40;;;17.30;;
44440;SDS011;30146;52.268;20.944;2023-02-28T02:30:17;45.20;;;19.30;;
44440;SDS011;30146;52.268;20.944;2023-02-28T02:33:03;37.00;;;17.30;;
44440;SDS011;30146;52.268;20.944;2023-02-28T02:35:43;38.20;;;17.90;;
44440;SDS011;30146;52.268;20.944;2023-02-28T02:38:18;49.10;;;18.80;;
44440;SDS011;30146;52.268;20.944;2023-02-28T02:40:55;35.70;;;17.40;;
44440;SDS011;30146;52.268;20.944;2023-02-28T02:43:32;39.50;;;18.10;;
44440;SDS011;30146;52.268;20.944;2023-02-28T02:46:07;41.60;;;17.30;;
44440;SDS011;30146;52.268;20.944;2023-02-28T02:48:44;35.30;;;17.00;;
44440;SDS011;30146;52.268;20.944;2023-02-28T02:51:14;37.80;;;16.90;;
44440;SDS011;30146;52.268;20.944;2023-02-28T02:53:46;36.50;;;17.70;;
44440;SDS011;30146;52.268;20.944;2023-02-28T02:56:17;35.70;;;16.90;;
44440;SDS011;30146;52.268;20.944;2023-02-28T02:58:49;36.20;;;16.80;;
44440;SDS011;30146;52.268;20.944;2023-02-28T03:01:21;35.60;;;18.40;;
44440;SDS011;30146;52.268;20.944;2023-02-28T03:03:56;42.50;;;18.30;;
44440;SDS011;30146;52.268;20.944;2023-02-28T03:06:26;41.30;;;17.30;;
44440;SDS011;30146;52.268;20.944;2023-02-28T03:08:54;38.10;;;17.50;;
44440;SDS011;30146;52.268;20.944;2023-02-28T03:11:22;40.40;;;18.50;;
44440;SDS011;30146;52.268;20.944;2023-02-28T03:14:03;42.00;;;16.30;;
44440;SDS011;30146;52.268;20.944;2023-02-28T03:16:58;38.20;;;17.50;;
44440;SDS011;30146;52.268;20.944;2023-02-28T03:19:43;38.20;;;17.00;;
44440;SDS011;30146;52.268;20.944;2023-02-28T03:22:25;40.60;;;18.30;;
44440;SDS011;30146;52.268;20.944;2023-02-28T03:25:07;39.60;;;17.30;;
44440;SDS011;30146;52.268;20.944;2023-02-28T03:27:42;32.80;;;17.90;;
44440;SDS011;30146;52.268;20.944;2023-02-28T03:30:23;37.00;;;18.20;;
44440;SDS011;30146;52.268;20.944;2023-02-28T03:32:57;39.80;;;20.10;;
44440;SDS011;30146;52.268;20.944;2023-02-28T03:35:32;41.50;;;17.90;;
44440;SDS011;30146;52.268;20.944;2023-02-28T03:38:06;41.80;;;18.00;;
44440;SDS011;30146;52.268;20.944;2023-02-28T03:40:41;43.50;;;17.50;;
44440;SDS011;30146;52.268;20.944;2023-02-28T03:43:14;44.20;;;17.80;;
44440;SDS011;30146;52.268;20.944;2023-02-28T03:45:48;36.20;;;18.30;;
44440;SDS011;30146;52.268;20.944;2023-02-28T03:48:20;38.40;;;17.20;;
44440;SDS011;30146;52.268;20.944;2023-02-28T03:50:53;48.00;;;18.30;;
44440;SDS011;30146;52.268;20.944;2023-02-28T03:53:27;44.10;;;19.40;;
44440;SDS011;30146;52.268;20.944;2023-02-28T03:55:58;37.10;;;17.50;;
44440;SDS011;30146;52.268;20.944;2023-02-28T03:58:31;35.80;;;17.40;;
44440;SDS011;30146;52.268;20.944;2023-02-28T04:01:08;40.40;;;18.70;;
44440;SDS011;30146;52.268;20.944;2023-02-28T04:06:08;47.90;;;18.50;;
44440;SDS011;30146;52.268;20.944;2023-02-28T04:08:43;44.00;;;19.70;;
44440;SDS011;30146;52.268;20.944;2023-02-28T04:11:14;34.30;;;18.20;;
44440;SDS011;30146;52.268;20.944;2023-02-28T04:13:47;39.70;;;18.10;;
44440;SDS011;30146;52.268;20.944;2023-02-28T04:16:15;43.00;;;18.50;;
44440;SDS011;30146;52.268;20.944;2023-02-28T04:19:00;41.10;;;17.50;;
44440;SDS011;30146;52.268;20.944;2023-02-28T04:21:29;49.70;;;20.40;;
44440;SDS011;30146;52.268;20.944;2023-02-28T04:23:59;43.40;;;19.50;;
44440;SDS011;30146;52.268;20.944;2023-02-28T04:26:29;45.60;;;18.40;;
44440;SDS011;30146;52.268;20.944;2023-02-28T04:28:58;41.30;;;18.10;;
44440;SDS011;30146;52.268;20.944;2023-02-28T04:31:27;45.10;;;19.20;;
44440;SDS011;30146;52.268;20.944;2023-02-28T04:33:55;37.70;;;18.40;;
44440;SDS011;30146;52.268;20.944;2023-02-28T04:36:24;38.20;;;18.00;;
44440;SDS011;30146;52.268;20.944;2023-02-28T04:38:53;41.50;;;18.90;;
44440;SDS011;30146;52.268;20.944;2023-02-28T04:41:21;37.00;;;18.50;;
44440;SDS011;30146;52.268;20.944;2023-02-28T04:43:51;39.90;;;17.50;;
44440;SDS011;30146;52.268;20.944;2023-02-28T04:46:19;40.10;;;18.90;;
44440;SDS011;30146;52.268;20.944;2023-02-28T04:48:47;44.30;;;19.00;;
44440;SDS011;30146;52.268;20.944;2023-02-28T04:51:17;51.20;;;19.80;;
44440;SDS011;30146;52.268;20.944;2023-02-28T04:53:46;39.50;;;18.80;;
44440;SDS011;30146;52.268;20.944;2023-02-28T04:56:15;43.20;;;19.30;;
44440;SDS011;30146;52.268;20.944;2023-02-28T04:58:44;41.60;;;20.70;;
44440;SDS011;30146;52.268;20.944;2023-02-28T05:01:17;43.50;;;21.20;;
44440;SDS011;30146;52.268;20.944;2023-02-28T05:03:47;46.10;;;21.60;;
44440;SDS011;30146;52.268;20.944;2023-02-28T05:06:16;44.80;;;20.50;;
44440;SDS011;30146;52.268;20.944;2023-02-28T05:08:45;35.60;;;19.90;;
44440;SDS011;30146;52.268;20.944;2023-02-28T05:11:15;44.90;;;18.60;;
44440;SDS011;30146;52.268;20.944;2023-02-28T05:13:47;48.70;;;19.50;;
44440;SDS011;30146;52.268;20.944;2023-02-28T05:16:16;50.30;;;21.20;;
44440;SDS011;30146;52.268;20.944;2023-02-28T05:18:45;52.30;;;21.70;;
44440;SDS011;30146;52.268;20.944;2023-02-28T05:21:21;46.60;;;20.10;;
44440;SDS011;30146;52.268;20.944;2023-02-28T05:23:52;44.80;;;20.70;;
44440;SDS011;30146;52.268;20.944;2023-02-28T05:26:24;47.60;;;21.50;;
44440;SDS011;30146;52.268;20.944;2023-02-28T05:28:53;58.70;;;23.50;;
44440;SDS011;30146;52.268;20.944;2023-02-28T05:31:22;61.40;;;22.80;;
44440;SDS011;30146;52.268;20.944;2023-02-28T05:33:51;40.30;;;20.30;;
44440;SDS011;30146;52.268;20.944;2023-02-28T05:36:20;43.90;;;20.80;;
44440;SDS011;30146;52.268;20.944;2023-02-28T05:38:48;40.20;;;21.30;;
44440;SDS011;30146;52.268;20.944;2023-02-28T05:41:17;51.30;;;21.90;;
44440;SDS011;30146;52.268;20.944;2023-02-28T05:43:46;60.20;;;24.50;;
44440;SDS011;30146;52.268;20.944;2023-02-28T05:46:15;54.20;;;24.90;;
44440;SDS011;30146;52.268;20.944;2023-02-28T05:48:45;47.90;;;22.80;;
44440;SDS011;30146;52.268;20.944;2023-02-28T05:51:14;41.70;;;22.00;;
44440;SDS011;30146;52.268;20.944;2023-02-28T05:53:43;54.10;;;23.60;;
44440;SDS011;30146;52.268;20.944;2023-02-28T05:56:11;46.20;;;21.30;;
44440;SDS011;30146;52.268;20.944;2023-02-28T05:58:43;46.90;;;23.30;;
44440;SDS011;30146;52.268;20.944;2023-02-28T06:01:25;59.80;;;22.50;;
44440;SDS011;30146;52.268;20.944;2023-02-28T06:04:00;44.00;;;22.00;;
44440;SDS011;30146;52.268;20.944;2023-02-28T06:06:31;49.20;;;21.80;;
44440;SDS011;30146;52.268;20.944;2023-02-28T06:09:03;46.40;;;22.20;;
44440;SDS011;30146;52.268;20.944;2023-02-28T06:11:32;51.30;;;22.90;;
44440;SDS011;30146;52.268;20.944;2023-02-28T06:14:00;47.50;;;23.30;;
44440;SDS011;30146;52.268;20.944;2023-02-28T06:16:29;45.20;;;21.80;;
44440;SDS011;30146;52.268;20.944;2023-02-28T06:19:00;50.80;;;22.50;;
44440;SDS011;30146;52.268;20.944;2023-02-28T06:21:29;42.50;;;23.20;;
44440;SDS011;30146;52.268;20.944;2023-02-28T06:23:59;53.80;;;23.50;;
44440;SDS011;30146;52.268;20.944;2023-02-28T06:26:27;42.40;;;21.70;;
44440;SDS011;30146;52.268;20.944;2023-02-28T06:28:56;49.90;;;22.40;;
44440;SDS011;30146;52.268;20.944;2023-02-28T06:31:24;46.00;;;21.50;;
44440;SDS011;30146;52.268;20.944;2023-02-28T06:33:52;41.50;;;20.10;;
44440;SDS011;30146;52.268;20.944;2023-02-28T06:36:20;40.60;;;21.50;;
44440;SDS011;30146;52.268;20.944;2023-02-28T06:38:48;41.80;;;21.60;;
44440;SDS011;30146;52.268;20.944;2023-02-28T06:41:21;40.70;;;20.50;;
44440;SDS011;30146;52.268;20.944;2023-02-28T06:43:51;35.90;;;18.70;;
44440;SDS011;30146;52.268;20.944;2023-02-28T06:46:27;38.00;;;18.80;;
44440;SDS011;30146;52.268;20.944;2023-02-28T06:48:56;38.90;;;18.00;;
44440;SDS011;30146;52.268;20.944;2023-02-28T06:51:24;24.80;;;13.80;;
44440;SDS011;30146;52.268;20.944;2023-02-28T06:53:53;27.80;;;14.90;;
44440;SDS011;30146;52.268;20.944;2023-02-28T06:56:21;25.30;;;13.70;;
44440;SDS011;30146;52.268;20.944;2023-02-28T06:58:50;29.60;;;13.40;;
44440;SDS011;30146;52.268;20.944;2023-02-28T07:01:19;27.40;;;15.60;;
44440;SDS011;30146;52.268;20.944;2023-02-28T07:03:49;24.20;;;11.40;;
44440;SDS011;30146;52.268;20.944;2023-02-28T07:06:19;21.40;;;11.40;;
44440;SDS011;30146;52.268;20.944;2023-02-28T07:08:49;30.00;;;11.30;;
44440;SDS011;30146;52.268;20.944;2023-02-28T07:11:18;20.60;;;11.20;;
44440;SDS011;30146;52.268;20.944;2023-02-28T07:13:48;23.60;;;11.50;;
44440;SDS011;30146;52.268;20.944;2023-02-28T07:16:17;22.80;;;10.30;;
44440;SDS011;30146;52.268;20.944;2023-02-28T07:18:46;29.40;;;11.10;;
44440;SDS011;30146;52.268;20.944;2023-02-28T07:21:15;18.00;;;10.60;;
44440;SDS011;30146;52.268;20.944;2023-02-28T07:23:44;20.10;;;9.00;;
44440;SDS011;30146;52.268;20.944;2023-02-28T07:26:13;16.20;;;9.60;;
44440;SDS011;30146;52.268;20.944;2023-02-28T07:28:42;20.80;;;9.50;;
44440;SDS011;30146;52.268;20.944;2023-02-28T07:31:11;11.70;;;7.30;;
44440;SDS011;30146;52.268;20.944;2023-02-28T07:33:41;13.50;;;7.40;;
44440;SDS011;30146;52.268;20.944;2023-02-28T07:36:10;11.90;;;7.20;;
44440;SDS011;30146;52.268;20.944;2023-02-28T07:38:41;10.00;;;5.50;;
44440;SDS011;30146;52.268;20.944;2023-02-28T07:41:14;8.90;;;5.90;;
44440;SDS011;30146;52.268;20.944;2023-02-28T07:43:43;8.90;;;5.00;;
44440;SDS011;30146;52.268;20.944;2023-02-28T07:46:11;6.90;;;5.40;;
44440;SDS011;30146;52.268;20.944;2023-02-28T07:48:42;8.20;;;6.20;;
44440;SDS011;30146;52.268;20.944;2023-02-28T07:51:11;13.00;;;5.40;;
44440;SDS011;30146;52.268;20.944;2023-02-28T07:53:40;11.00;;;6.30;;
44440;SDS011;30146;52.268;20.944;2023-02-28T07:56:08;10.00;;;5.20;;
44440;SDS011;30146;52.268;20.944;2023-02-28T07:58:37;8.20;;;5.30;;
44440;SDS011;30146;52.268;20.944;2023-02-28T08:01:06;11.30;;;5.20;;
44440;SDS011;30146;52.268;20.944;2023-02-28T08:03:35;7.80;;;5.20;;
44440;SDS011;30146;52.268;20.944;2023-02-28T08:06:04;8.00;;;5.00;;
44440;SDS011;30146;52.268;20.944;2023-02-28T08:08:35;6.20;;;4.80;;
44440;SDS011;30146;52.268;20.944;2023-02-28T08:11:03;9.30;;;5.80;;
44440;SDS011;30146;52.268;20.944;2023-02-28T08:13:31;7.90;;;5.50;;
44440;SDS011;30146;52.268;20.944;2023-02-28T08:16:00;9.90;;;5.80;;
44440;SDS011;30146;52.268;20.944;2023-02-28T08:18:32;8.70;;;5.70;;
44440;SDS011;30146;52.268;20.944;2023-02-28T08:21:05;9.20;;;6.20;;
44440;SDS011;30146;52.268;20.944;2023-02-28T08:23:34;9.70;;;6.10;;
44440;SDS011;30146;52.268;20.944;2023-02-28T08:26:03;7.50;;;5.70;;
44440;SDS011;30146;52.268;20.944;2023-02-28T08:28:31;9.60;;;6.60;;
44440;SDS011;30146;52.268;20.944;2023-02-28T08:30:59;10.60;;;6.00;;
44440;SDS011;30146;52.268;20.944;2023-02-28T08:33:27;10.00;;;5.70;;
44440;SDS011;30146;52.268;20.944;2023-02-28T08:35:56;11.50;;;6.60;;
44440;SDS011;30146;52.268;20.944;2023-02-28T08:38:24;9.10;;;6.30;;
44440;SDS011;30146;52.268;20.944;2023-02-28T08:40:57;12.00;;;7.30;;
44440;SDS011;30146;52.268;20.944;2023-02-28T08:43:25;11.20;;;6.30;;
44440;SDS011;30146;52.268;20.944;2023-02-28T08:45:54;11.40;;;6.60;;
44440;SDS011;30146;52.268;20.944;2023-02-28T08:48:24;12.50;;;6.50;;
44440;SDS011;30146;52.268;20.944;2023-02-28T08:51:00;10.10;;;6.10;;
44440;SDS011;30146;52.268;20.944;2023-02-28T08:53:35;10.80;;;6.50;;
44440;SDS011;30146;52.268;20.944;2023-02-28T08:56:05;11.80;;;6.60;;
44440;SDS011;30146;52.268;20.944;2023-02-28T08:58:35;10.30;;;6.70;;
44440;SDS011;30146;52.268;20.944;2023-02-28T09:01:07;8.10;;;6.10;;
44440;SDS011;30146;52.268;20.944;2023-02-28T09:03:37;9.90;;;6.50;;
44440;SDS011;30146;52.268;20.944;2023-02-28T09:06:08;13.60;;;6.40;;
44440;SDS011;30146;52.268;20.944;2023-02-28T09:08:37;12.00;;;6.40;;
44440;SDS011;30146;52.268;20.944;2023-02-28T09:11:05;8.00;;;6.00;;
44440;SDS011;30146;52.268;20.944;2023-02-28T09:13:54;13.20;;;6.50;;
44440;SDS011;30146;52.268;20.944;2023-02-28T09:16:22;8.90;;;6.50;;
44440;SDS011;30146;52.268;20.944;2023-02-28T09:18:50;9.40;;;6.40;;
44440;SDS011;30146;52.268;20.944;2023-02-28T09:21:18;8.70;;;6.70;;
44440;SDS011;30146;52.268;20.944;2023-02-28T09:23:47;9.30;;;6.30;;
44440;SDS011;30146;52.268;20.944;2023-02-28T09:26:17;12.40;;;6.20;;
44440;SDS011;30146;52.268;20.944;2023-02-28T09:28:47;10.30;;;6.50;;
44440;SDS011;30146;52.268;20.944;2023-02-28T09:31:16;10.50;;;7.00;;
44440;SDS011;30146;52.268;20.944;2023-02-28T09:33:47;9.60;;;6.60;;
44440;SDS011;30146;52.268;20.944;2023-02-28T09:36:15;8.70;;;6.40;;
44440;SDS011;30146;52.268;20.944;2023-02-28T09:38:44;9.50;;;6.80;;
44440;SDS011;30146;52.268;20.944;2023-02-28T09:41:18;12.40;;;7.20;;
44440;SDS011;30146;52.268;20.944;2023-02-28T09:43:49;9.80;;;7.10;;
44440;SDS011;30146;52.268;20.944;2023-02-28T09:46:24;16.40;;;7.30;;
44440;SDS011;30146;52.268;20.944;2023-02-28T09:48:58;11.20;;;7.50;;
44440;SDS011;30146;52.268;20.944;2023-02-28T09:51:40;12.10;;;7.90;;
44440;SDS011;30146;52.268;20.944;2023-02-28T09:54:15;12.90;;;7.40;;
44440;SDS011;30146;52.268;20.944;2023-02-28T09:56:46;12.10;;;6.90;;
44440;SDS011;30146;52.268;20.944;2023-02-28T09:59:23;13.00;;;7.20;;
44440;SDS011;30146;52.268;20.944;2023-02-28T10:02:02;9.60;;;7.50;;
44440;SDS011;30146;52.268;20.944;2023-02-28T10:04:46;11.40;;;7.00;;
44440;SDS011;30146;52.268;20.944;2023-02-28T10:07:35;10.30;;;7.30;;
44440;SDS011;30146;52.268;20.944;2023-02-28T10:10:17;14.40;;;7.20;;
44440;SDS011;30146;52.268;20.944;2023-02-28T10:12:49;10.80;;;7.60;;
44440;SDS011;30146;52.268;20.944;2023-02-28T10:15:23;10.30;;;7.30;;
44440;SDS011;30146;52.268;20.944;2023-02-28T10:17:56;9.10;;;6.70;;
44440;SDS011;30146;52.268;20.944;2023-02-28T10:20:36;12.50;;;7.30;;
44440;SDS011;30146;52.268;20.944;2023-02-28T10:23:09;11.60;;;7.20;;
44440;SDS011;30146;52.268;20.944;2023-02-28T10:25:43;11.80;;;6.80;;
44440;SDS011;30146;52.268;20.944;2023-02-28T10:28:15;11.40;;;7.40;;
44440;SDS011;30146;52.268;20.944;2023-02-28T10:30:46;12.00;;;7.40;;
44440;SDS011;30146;52.268;20.944;2023-02-28T10:33:21;14.10;;;8.50;;
44440;SDS011;30146;52.268;20.944;2023-02-28T10:35:53;12.00;;;8.20;;
44440;SDS011;30146;52.268;20.944;2023-02-28T10:38:23;12.90;;;7.70;;
44440;SDS011;30146;52.268;20.944;2023-02-28T10:41:03;11.50;;;8.20;;
44440;SDS011;30146;52.268;20.944;2023-02-28T10:43:34;12.10;;;7.60;;
44440;SDS011;30146;52.268;20.944;2023-02-28T10:46:03;10.30;;;7.60;;
44440;SDS011;30146;52.268;20.944;2023-02-28T10:48:43;17.70;;;8.10;;
44440;SDS011;30146;52.268;20.944;2023-02-28T10:51:18;14.60;;;8.40;;
44440;SDS011;30146;52.268;20.944;2023-02-28T10:53:49;11.30;;;7.70;;
44440;SDS011;30146;52.268;20.944;2023-02-28T10:56:30;16.90;;;9.00;;
44440;SDS011;30146;52.268;20.944;2023-02-28T10:59:00;11.20;;;7.10;;
44440;SDS011;30146;52.268;20.944;2023-02-28T11:01:37;15.40;;;7.90;;
44440;SDS011;30146;52.268;20.944;2023-02-28T11:04:17;12.50;;;8.00;;
44440;SDS011;30146;52.268;20.944;2023-02-28T11:07:00;11.00;;;8.10;;
44440;SDS011;30146;52.268;20.944;2023-02-28T11:09:31;11.30;;;8.00;;
44440;SDS011;30146;52.268;20.944;2023-02-28T11:12:01;12.90;;;9.00;;
44440;SDS011;30146;52.268;20.944;2023-02-28T11:14:32;14.50;;;9.20;;
44440;SDS011;30146;52.268;20.944;2023-02-28T11:17:13;11.70;;;8.90;;
44440;SDS011;30146;52.268;20.944;2023-02-28T11:19:46;14.90;;;8.00;;
44440;SDS011;30146;52.268;20.944;2023-02-28T11:22:19;10.60;;;7.80;;
44440;SDS011;30146;52.268;20.944;2023-02-28T11:24:50;16.30;;;9.80;;
44440;SDS011;30146;52.268;20.944;2023-02-28T11:27:40;17.30;;;9.50;;
44440;SDS011;30146;52.268;20.944;2023-02-28T11:30:27;14.10;;;9.30;;
44440;SDS011;30146;52.268;20.944;2023-02-28T11:33:01;13.70;;;9.10;;
44440;SDS011;30146;52.268;20.944;2023-02-28T11:35:48;19.20;;;9.60;;
44440;SDS011;30146;52.268;20.944;2023-02-28T11:38:19;15.50;;;8.60;;
44440;SDS011;30146;52.268;20.944;2023-02-28T11:40:49;12.30;;;8.90;;
44440;SDS011;30146;52.268;20.944;2023-02-28T11:43:30;14.40;;;10.10;;
44440;SDS011;30146;52.268;20.944;2023-02-28T11:48:51;19.40;;;10.00;;
44440;SDS011;30146;52.268;20.944;2023-02-28T11:51:28;14.30;;;8.90;;
44440;SDS011;30146;52.268;20.944;2023-02-28T11:54:04;15.90;;;9.30;;
44440;SDS011;30146;52.268;20.944;2023-02-28T11:56:51;14.70;;;9.20;;
44440;SDS011;30146;52.268;20.944;2023-02-28T11:59:31;13.40;;;9.40;;
44440;SDS011;30146;52.268;20.944;2023-02-28T12:02:22;21.90;;;9.20;;
44440;SDS011;30146;52.268;20.944;2023-02-28T12:05:03;13.30;;;9.40;;
44440;SDS011;30146;52.268;20.944;2023-02-28T12:07:44;15.30;;;9.70;;
44440;SDS011;30146;52.268;20.944;2023-02-28T12:10:21;13.40;;;9.40;;
44440;SDS011;30146;52.268;20.944;2023-02-28T12:12:54;14.30;;;9.30;;
44440;SDS011;30146;52.268;20.944;2023-02-28T12:15:50;15.60;;;9.60;;
44440;SDS011;30146;52.268;20.944;2023-02-28T12:18:40;16.80;;;10.50;;
44440;SDS011;30146;52.268;20.944;2023-02-28T12:21:21;15.30;;;10.50;;
44440;SDS011;30146;52.268;20.944;2023-02-28T12:24:04;15.00;;;10.10;;
44440;SDS011;30146;52.268;20.944;2023-02-28T12:26:46;14.70;;;10.60;;
44440;SDS011;30146;52.268;20.944;2023-02-28T12:29:16;17.10;;;9.90;;
44440;SDS011;30146;52.268;20.944;2023-02-28T12:31:52;17.40;;;11.00;;
44440;SDS011;30146;52.268;20.944;2023-02-28T12:34:24;18.40;;;10.30;;
44440;SDS011;30146;52.268;20.944;2023-02-28T12:36:55;15.10;;;10.90;;
44440;SDS011;30146;52.268;20.944;2023-02-28T12:39:34;19.00;;;11.20;;
44440;SDS011;30146;52.268;20.944;2023-02-28T12:42:19;14.70;;;10.00;;
44440;SDS011;30146;52.268;20.944;2023-02-28T12:44:52;15.10;;;10.10;;
44440;SDS011;30146;52.268;20.944;2023-02-28T12:47:25;17.30;;;9.60;;
44440;SDS011;30146;52.268;20.944;2023-02-28T12:49:54;14.90;;;10.00;;
44440;SDS011;30146;52.268;20.944;2023-02-28T12:52:29;17.60;;;10.40;;
44440;SDS011;30146;52.268;20.944;2023-02-28T12:55:08;16.70;;;10.60;;
44440;SDS011;30146;52.268;20.944;2023-02-28T12:57:44;15.10;;;10.40;;
44440;SDS011;30146;52.268;20.944;2023-02-28T13:00:18;15.70;;;8.60;;
44440;SDS011;30146;52.268;20.944;2023-02-28T13:03:00;16.10;;;10.40;;
44440;SDS011;30146;52.268;20.944;2023-02-28T13:09:02;18.20;;;10.10;;
44440;SDS011;30146;52.268;20.944;2023-02-28T13:11:39;17.80;;;9.10;;
44440;SDS011;30146;52.268;20.944;2023-02-28T13:14:26;15.80;;;10.00;;
44440;SDS011;30146;52.268;20.944;2023-02-28T13:16:58;16.10;;;8.70;;
44440;SDS011;30146;52.268;20.944;2023-02-28T13:19:29;16.50;;;9.40;;
44440;SDS011;30146;52.268;20.944;2023-02-28T13:21:59;14.60;;;9.40;;
44440;SDS011;30146;52.268;20.944;2023-02-28T13:24:44;14.10;;;8.80;;
44440;SDS011;30146;52.268;20.944;2023-02-28T13:30:02;15.20;;;9.20;;
44440;SDS011;30146;52.268;20.944;2023-02-28T13:33:29;16.50;;;7.80;;
44440;SDS011;30146;52.268;20.944;2023-02-28T13:36:09;17.40;;;10.10;;
44440;SDS011;30146;52.268;20.944;2023-02-28T13:38:50;14.50;;;10.40;;
44440;SDS011;30146;52.268;20.944;2023-02-28T13:44:10;19.30;;;9.60;;
44440;SDS011;30146;52.268;20.944;2023-02-28T13:49:52;17.10;;;8.70;;
44440;SDS011;30146;52.268;20.944;2023-02-28T13:52:21;12.70;;;7.90;;
44440;SDS011;30146;52.268;20.944;2023-02-28T13:54:55;14.70;;;9.70;;
44440;SDS011;30146;52.268;20.944;2023-02-28T13:57:35;13.40;;;8.40;;
44440;SDS011;30146;52.268;20.944;2023-02-28T14:00:19;14.60;;;8.40;;
44440;SDS011;30146;52.268;20.944;2023-02-28T14:03:01;12.10;;;7.60;;
44440;SDS011;30146;52.268;20.944;2023-02-28T14:05:39;20.70;;;8.10;;
44440;SDS011;30146;52.268;20.944;2023-02-28T14:08:10;16.10;;;9.00;;
44440;SDS011;30146;52.268;20.944;2023-02-28T14:13:14;13.70;;;8.60;;
44440;SDS011;30146;52.268;20.944;2023-02-28T14:16:10;14.30;;;8.10;;
44440;SDS011;30146;52.268;20.944;2023-02-28T14:18:41;12.40;;;9.00;;
44440;SDS011;30146;52.268;20.944;2023-02-28T14:21:19;13.50;;;8.20;;
44440;SDS011;30146;52.268;20.944;2023-02-28T14:27:11;11.30;;;7.70;;
44440;SDS011;30146;52.268;20.944;2023-02-28T14:29:57;15.60;;;8.50;;
44440;SDS011;30146;52.268;20.944;2023-02-28T14:32:59;17.30;;;8.40;;
44440;SDS011;30146;52.268;20.944;2023-02-28T14:38:51;12.30;;;7.80;;
44440;SDS011;30146;52.268;20.944;2023-02-28T14:41:22;13.70;;;8.90;;
44440;SDS011;30146;52.268;20.944;2023-02-28T14:43:56;14.90;;;8.90;;
44440;SDS011;30146;52.268;20.944;2023-02-28T14:46:26;14.60;;;8.10;;
44440;SDS011;30146;52.268;20.944;2023-02-28T14:49:02;17.10;;;9.00;;
44440;SDS011;30146;52.268;20.944;2023-02-28T14:51:32;15.00;;;8.60;;
44440;SDS011;30146;52.268;20.944;2023-02-28T14:54:01;18.50;;;9.20;;
44440;SDS011;30146;52.268;20.944;2023-02-28T14:56:32;14.80;;;9.30;;
44440;SDS011;30146;52.268;20.944;2023-02-28T14:59:04;17.80;;;9.50;;
44440;SDS011;30146;52.268;20.944;2023-02-28T15:01:52;14.20;;;8.70;;
44440;SDS011;30146;52.268;20.944;2023-02-28T15:04:34;15.60;;;9.20;;
44440;SDS011;30146;52.268;20.944;2023-02-28T15:07:11;13.70;;;8.50;;
44440;SDS011;30146;52.268;20.944;2023-02-28T15:09:42;16.60;;;8.50;;
44440;SDS011;30146;52.268;20.944;2023-02-28T15:12:13;14.70;;;9.70;;
44440;SDS011;30146;52.268;20.944;2023-02-28T15:14:43;16.30;;;9.60;;
44440;SDS011;30146;52.268;20.944;2023-02-28T15:17:14;16.30;;;9.50;;
44440;SDS011;30146;52.268;20.944;2023-02-28T15:19:55;24.60;;;14.20;;